Terminal Aerodrome Forecast
Issued by NWS

Home | Current Version | Previous Version | Text Only | Print | Product List | Glossary On
Versions: 1 2 3 4 5 6 7 8 9 10 11 12 13 14 15 16 17 18 19 20 21 22 23
000
FTUS41 KBTV 291700
TAFMPV
TAF
KMPV 291720Z 2918/3018 29007KT P6SM BKN040
     FM300100 VRB03KT P6SM FEW035
     FM300500 00000KT 2SM BR BKN002
     FM300700 00000KT 1/2SM FG OVC001
     FM301230 18004KT P6SM SCT045=

USA.gov is the U.S. government's official web portal to all federal, state and local government web resources and services.